sensor_id;sensor_type;location;lat;lon;timestamp;temperature;humidity
43541;DHT22;29549;40.386;-3.710;2023-04-16T00:08:33;16.80;44.30
43541;DHT22;29549;40.386;-3.710;2023-04-16T00:18:36;16.70;44.50
43541;DHT22;29549;40.386;-3.710;2023-04-16T00:28:37;16.60;45.10
43541;DHT22;29549;40.386;-3.710;2023-04-16T00:38:38;16.40;45.80
43541;DHT22;29549;40.386;-3.710;2023-04-16T00:48:42;16.20;46.30
43541;DHT22;29549;40.386;-3.710;2023-04-16T00:58:44;16.20;46.00
43541;DHT22;29549;40.386;-3.710;2023-04-16T01:08:46;16.10;46.20
43541;DHT22;29549;40.386;-3.710;2023-04-16T01:18:48;16.10;46.00
43541;DHT22;29549;40.386;-3.710;2023-04-16T01:28:49;16.00;46.30
43541;DHT22;29549;40.386;-3.710;2023-04-16T01:38:51;15.90;46.40
43541;DHT22;29549;40.386;-3.710;2023-04-16T01:48:53;15.70;46.80
43541;DHT22;29549;40.386;-3.710;2023-04-16T01:58:54;15.70;46.90
43541;DHT22;29549;40.386;-3.710;2023-04-16T02:08:56;15.80;46.40
43541;DHT22;29549;40.386;-3.710;2023-04-16T02:18:57;15.60;47.60
43541;DHT22;29549;40.386;-3.710;2023-04-16T02:28:59;15.50;47.40
43541;DHT22;29549;40.386;-3.710;2023-04-16T02:39:00;15.50;47.50
43541;DHT22;29549;40.386;-3.710;2023-04-16T02:49:02;15.50;47.60
43541;DHT22;29549;40.386;-3.710;2023-04-16T02:59:03;15.30;48.10
43541;DHT22;29549;40.386;-3.710;2023-04-16T03:09:05;15.40;47.80
43541;DHT22;29549;40.386;-3.710;2023-04-16T03:19:06;15.20;48.50
43541;DHT22;29549;40.386;-3.710;2023-04-16T03:29:08;15.20;48.50
43541;DHT22;29549;40.386;-3.710;2023-04-16T03:39:09;15.10;49.10
43541;DHT22;29549;40.386;-3.710;2023-04-16T03:49:11;15.10;49.00
43541;DHT22;29549;40.386;-3.710;2023-04-16T03:59:12;15.10;49.10
43541;DHT22;29549;40.386;-3.710;2023-04-16T04:09:14;14.90;49.20
43541;DHT22;29549;40.386;-3.710;2023-04-16T04:19:16;14.80;49.10
43541;DHT22;29549;40.386;-3.710;2023-04-16T04:29:17;14.70;49.50
43541;DHT22;29549;40.386;-3.710;2023-04-16T04:39:19;14.60;49.60
43541;DHT22;29549;40.386;-3.710;2023-04-16T04:49:22;14.70;49.70
43541;DHT22;29549;40.386;-3.710;2023-04-16T04:59:24;14.50;49.80
43541;DHT22;29549;40.386;-3.710;2023-04-16T05:09:26;14.40;50.00
43541;DHT22;29549;40.386;-3.710;2023-04-16T05:19:27;14.40;50.40
43541;DHT22;29549;40.386;-3.710;2023-04-16T05:29:28;14.30;50.50
43541;DHT22;29549;40.386;-3.710;2023-04-16T05:39:30;14.20;50.60
43541;DHT22;29549;40.386;-3.710;2023-04-16T05:49:31;14.20;50.90
43541;DHT22;29549;40.386;-3.710;2023-04-16T05:59:32;14.20;50.90
43541;DHT22;29549;40.386;-3.710;2023-04-16T06:09:34;14.20;51.20
43541;DHT22;29549;40.386;-3.710;2023-04-16T06:19:36;14.20;51.20
43541;DHT22;29549;40.386;-3.710;2023-04-16T06:29:37;14.20;51.00
43541;DHT22;29549;40.386;-3.710;2023-04-16T06:39:38;14.20;50.80
43541;DHT22;29549;40.386;-3.710;2023-04-16T06:49:40;14.20;50.70
43541;DHT22;29549;40.386;-3.710;2023-04-16T06:59:42;14.40;50.60
43541;DHT22;29549;40.386;-3.710;2023-04-16T07:09:43;14.60;50.10
43541;DHT22;29549;40.386;-3.710;2023-04-16T07:19:45;14.90;49.00
43541;DHT22;29549;40.386;-3.710;2023-04-16T07:29:46;15.20;48.60
43541;DHT22;29549;40.386;-3.710;2023-04-16T07:39:50;15.60;47.80
43541;DHT22;29549;40.386;-3.710;2023-04-16T07:49:52;15.90;47.00
43541;DHT22;29549;40.386;-3.710;2023-04-16T07:59:54;16.20;46.20
43541;DHT22;29549;40.386;-3.710;2023-04-16T08:09:55;16.30;46.30
43541;DHT22;29549;40.386;-3.710;2023-04-16T08:19:56;16.50;45.70
43541;DHT22;29549;40.386;-3.710;2023-04-16T08:29:58;16.70;45.60
43541;DHT22;29549;40.386;-3.710;2023-04-16T08:39:59;16.80;45.70
43541;DHT22;29549;40.386;-3.710;2023-04-16T08:50:03;17.00;45.30
43541;DHT22;29549;40.386;-3.710;2023-04-16T09:00:06;17.30;44.70
43541;DHT22;29549;40.386;-3.710;2023-04-16T09:10:09;17.30;44.00
43541;DHT22;29549;40.386;-3.710;2023-04-16T09:20:14;17.60;43.90
43541;DHT22;29549;40.386;-3.710;2023-04-16T09:30:27;17.60;43.30
43541;DHT22;29549;40.386;-3.710;2023-04-16T09:40:28;17.70;43.50
43541;DHT22;29549;40.386;-3.710;2023-04-16T09:50:31;17.70;42.80
43541;DHT22;29549;40.386;-3.710;2023-04-16T10:00:32;17.70;42.90
43541;DHT22;29549;40.386;-3.710;2023-04-16T10:10:34;17.90;42.50
43541;DHT22;29549;40.386;-3.710;2023-04-16T10:20:36;18.00;42.10
43541;DHT22;29549;40.386;-3.710;2023-04-16T10:30:38;18.30;41.80
43541;DHT22;29549;40.386;-3.710;2023-04-16T10:40:43;18.50;40.50
43541;DHT22;29549;40.386;-3.710;2023-04-16T10:50:57;18.40;40.10
43541;DHT22;29549;40.386;-3.710;2023-04-16T11:00:59;18.90;38.70
43541;DHT22;29549;40.386;-3.710;2023-04-16T11:11:04;18.90;39.00
43541;DHT22;29549;40.386;-3.710;2023-04-16T11:21:10;19.20;37.90
43541;DHT22;29549;40.386;-3.710;2023-04-16T11:31:12;19.40;36.90
43541;DHT22;29549;40.386;-3.710;2023-04-16T11:41:18;19.60;36.00
43541;DHT22;29549;40.386;-3.710;2023-04-16T11:51:20;19.90;34.80
43541;DHT22;29549;40.386;-3.710;2023-04-16T12:01:23;19.80;34.90
43541;DHT22;29549;40.386;-3.710;2023-04-16T12:11:41;20.00;34.90
43541;DHT22;29549;40.386;-3.710;2023-04-16T12:21:47;20.30;34.90
43541;DHT22;29549;40.386;-3.710;2023-04-16T12:31:50;20.70;33.10
43541;DHT22;29549;40.386;-3.710;2023-04-16T12:41:51;20.80;32.90
43541;DHT22;29549;40.386;-3.710;2023-04-16T12:51:53;21.00;32.00
43541;DHT22;29549;40.386;-3.710;2023-04-16T13:01:54;21.20;31.40
43541;DHT22;29549;40.386;-3.710;2023-04-16T13:11:55;21.20;30.80
43541;DHT22;29549;40.386;-3.710;2023-04-16T13:21:57;21.30;30.50
43541;DHT22;29549;40.386;-3.710;2023-04-16T13:31:59;21.50;30.30
43541;DHT22;29549;40.386;-3.710;2023-04-16T13:42:01;21.70;29.70
43541;DHT22;29549;40.386;-3.710;2023-04-16T13:52:02;21.70;28.60
43541;DHT22;29549;40.386;-3.710;2023-04-16T14:02:04;21.90;27.90
43541;DHT22;29549;40.386;-3.710;2023-04-16T14:12:06;22.10;27.50
43541;DHT22;29549;40.386;-3.710;2023-04-16T14:22:07;22.30;27.20
43541;DHT22;29549;40.386;-3.710;2023-04-16T14:32:08;22.40;26.30
43541;DHT22;29549;40.386;-3.710;2023-04-16T14:42:10;22.50;26.80
43541;DHT22;29549;40.386;-3.710;2023-04-16T14:52:11;22.80;25.50
43541;DHT22;29549;40.386;-3.710;2023-04-16T15:02:13;22.80;24.70
43541;DHT22;29549;40.386;-3.710;2023-04-16T15:12:15;22.90;24.90
43541;DHT22;29549;40.386;-3.710;2023-04-16T15:22:16;23.00;24.10
43541;DHT22;29549;40.386;-3.710;2023-04-16T15:32:18;23.10;24.50
43541;DHT22;29549;40.386;-3.710;2023-04-16T15:42:19;23.20;24.20
43541;DHT22;29549;40.386;-3.710;2023-04-16T15:52:21;23.20;24.10
43541;DHT22;29549;40.386;-3.710;2023-04-16T16:02:22;23.20;23.60
43541;DHT22;29549;40.386;-3.710;2023-04-16T16:12:24;23.30;23.40
43541;DHT22;29549;40.386;-3.710;2023-04-16T16:22:25;23.30;23.10
43541;DHT22;29549;40.386;-3.710;2023-04-16T16:32:26;23.40;22.80
43541;DHT22;29549;40.386;-3.710;2023-04-16T16:42:28;23.30;22.40
43541;DHT22;29549;40.386;-3.710;2023-04-16T16:52:29;23.20;22.30
43541;DHT22;29549;40.386;-3.710;2023-04-16T17:02:31;23.10;22.20
43541;DHT22;29549;40.386;-3.710;2023-04-16T17:12:32;23.10;22.50
43541;DHT22;29549;40.386;-3.710;2023-04-16T17:22:34;23.20;22.20
43541;DHT22;29549;40.386;-3.710;2023-04-16T17:32:36;23.20;21.90
43541;DHT22;29549;40.386;-3.710;2023-04-16T17:42:37;23.10;22.00
43541;DHT22;29549;40.386;-3.710;2023-04-16T17:52:39;23.20;20.60
43541;DHT22;29549;40.386;-3.710;2023-04-16T18:02:40;23.20;20.50
43541;DHT22;29549;40.386;-3.710;2023-04-16T18:12:42;23.00;20.80
43541;DHT22;29549;40.386;-3.710;2023-04-16T18:22:43;23.00;20.60
43541;DHT22;29549;40.386;-3.710;2023-04-16T18:32:45;22.80;20.70
43541;DHT22;29549;40.386;-3.710;2023-04-16T18:42:46;22.60;20.70
43541;DHT22;29549;40.386;-3.710;2023-04-16T18:52:48;22.40;21.00
43541;DHT22;29549;40.386;-3.710;2023-04-16T19:02:49;22.20;20.80
43541;DHT22;29549;40.386;-3.710;2023-04-16T19:12:51;22.10;20.90
43541;DHT22;29549;40.386;-3.710;2023-04-16T19:22:52;21.90;21.10
43541;DHT22;29549;40.386;-3.710;2023-04-16T19:32:53;21.60;21.40
43541;DHT22;29549;40.386;-3.710;2023-04-16T19:42:55;21.50;21.60
43541;DHT22;29549;40.386;-3.710;2023-04-16T19:52:57;21.40;21.40
43541;DHT22;29549;40.386;-3.710;2023-04-16T20:02:58;21.20;21.90
43541;DHT22;29549;40.386;-3.710;2023-04-16T20:13:00;21.10;22.30
43541;DHT22;29549;40.386;-3.710;2023-04-16T20:23:01;20.80;22.50
43541;DHT22;29549;40.386;-3.710;2023-04-16T20:33:06;20.60;22.80
43541;DHT22;29549;40.386;-3.710;2023-04-16T20:43:08;20.70;22.60
43541;DHT22;29549;40.386;-3.710;2023-04-16T20:53:10;20.50;23.20
43541;DHT22;29549;40.386;-3.710;2023-04-16T21:03:13;20.30;23.40
43541;DHT22;29549;40.386;-3.710;2023-04-16T21:13:14;20.20;23.90
43541;DHT22;29549;40.386;-3.710;2023-04-16T21:23:15;20.00;24.60
43541;DHT22;29549;40.386;-3.710;2023-04-16T21:33:17;19.90;25.00
43541;DHT22;29549;40.386;-3.710;2023-04-16T21:43:19;19.70;25.50
43541;DHT22;29549;40.386;-3.710;2023-04-16T21:53:20;19.60;25.20
43541;DHT22;29549;40.386;-3.710;2023-04-16T22:03:23;19.40;25.20
43541;DHT22;29549;40.386;-3.710;2023-04-16T22:13:29;19.20;24.70
43541;DHT22;29549;40.386;-3.710;2023-04-16T22:23:32;19.20;24.20
43541;DHT22;29549;40.386;-3.710;2023-04-16T22:33:33;19.00;24.30
43541;DHT22;29549;40.386;-3.710;2023-04-16T22:43:35;18.90;24.10
43541;DHT22;29549;40.386;-3.710;2023-04-16T22:53:37;18.70;24.10
43541;DHT22;29549;40.386;-3.710;2023-04-16T23:03:38;18.50;24.00
43541;DHT22;29549;40.386;-3.710;2023-04-16T23:13:40;18.20;24.10
43541;DHT22;29549;40.386;-3.710;2023-04-16T23:23:42;18.10;24.30
43541;DHT22;29549;40.386;-3.710;2023-04-16T23:33:44;17.90;24.30
43541;DHT22;29549;40.386;-3.710;2023-04-16T23:43:45;17.80;24.20
43541;DHT22;29549;40.386;-3.710;2023-04-16T23:53:46;17.70;24.20
